LEI weather

Almería International Airport
Almería, Andalucía, Spain

Public forecast

Using degrees Celsius for public forecast. Weather courtesy of forecast.io.

METAR (pilot weather report)

Retrieved 2019/05/22 07:30 UTC (0 seconds ago):

LEAM 220730Z VRB05KT CAVOK 21/13 Q1017

TAF (pilot weather forecast)

Retrieved 2019/05/22 03:27 UTC (4 hours ago):

TAF TAF LEAM 220200Z 2203/2303 VRB02KT CAVOK TX24/2213Z TN15/2205Z BECMG 2203/2205 33010KT BECMG 2206/2208 18008KT BECMG 2218/2220 06010KT